Patrick Dumfries

Chefscout - Vitesse
22 Feb 2028
Dienstag
Verarbeitung

Persönlichkeit

Anpassungsfähigkeit (19) Ehrgeiz (18) Kontroverse (8) Loyalität (5) Druck (13) Professionalität (18) Fairness (12) Temperament (7)

Profil

Trainerstil Demokratisch
Lizenz Kontinentale A
Entschlossenheit 6
Menschenführung 6
Motivation 5
Disziplin 7
Arbeitszufriedenheit
100%
Ermüdung
0%
Rolle Chefscout
Gehalt 69.1K p/W
Vertrag 14.03.2029

Leistung

Verhalten Gut
Trainingseffektivität
54%
Spielerentwicklung
40%
Verletzungsprävention
50%
Taktische Umsetzung
50%

Letzte Ereignisse

Nahm an einer Scouting-Besprechung teil jetzt
Empfahl ein Transferziel jetzt
Empfahl ein Transferziel jetzt
Nahm an einer Scouting-Besprechung teil jetzt
Empfahl ein Transferziel 7T her
Nahm an einer Scouting-Besprechung teil 7T her
Nahm an einer Scouting-Besprechung teil 7T her
Nahm an einer Scouting-Besprechung teil 7T her

Aktuell beobachtet

177
Spieler Verein Status Fähigkeit Vertrauen Beobachtet Zuletzt beobachtet Letzte Stimme
Ibrahim Cissoko Zwolle Aktiv 120 / 131 55% 1 31.01.2028 -
Mikkel Hope Haugesund Aktiv 83 / 109 40% 1 10.01.2028 -
Jan Bürger Gillingham Aktiv 125 / 126 40% 1 10.01.2028 -
Zakarya Khaldi Roda Aktiv 86 / 97 55% 1 01.01.2028 -
Negueba Mirassol Aktiv 141 / 111 40% 3 29.12.2027 -
Aurélien Scheidler Tondela Aktiv 130 / 116 40% 1 29.12.2027 -
Myron van Brederode KV Mechelen Aktiv 128 / 119 40% 4 28.12.2027 -
Lewis Morgan SuperSport United Aktiv 133 / 127 40% 2 28.12.2027 -
Tadeo Allende Inter Miami CF Aktiv 133 / 131 40% 5 27.12.2027 -
Dániel Sallói Toronto FC Aktiv 123 / 110 40% 1 27.12.2027 -
Adriano Bertaccini Anderlecht Aktiv 130 / 130 40% 8 26.12.2027 Beobachten
Arthur Cabral Botafogo Aktiv 114 / 111 40% 4 26.12.2027 -
Ferreirinha Sport Recife Aktiv 116 / 121 40% 3 25.12.2027 -
Rodrigo Castillo Fluminense Aktiv 126 / 148 40% 1 24.12.2027 -
Mateo Cassierra Atlético Mineiro Aktiv 122 / 119 40% 4 23.12.2027 -
Gianluca Pugliese Güemes Aktiv 100 / 126 40% 4 22.12.2027 -
Leonardo Campana New England Revolution Aktiv 132 / 119 40% 4 21.12.2027 -
Emmanuel Sabbi Vancouver Whitecaps Aktiv 120 / 118 40% 6 21.12.2027 -
Adrián Parra Deportes Tolima Aktiv 102 / 96 40% 1 19.12.2027 -
Adnan Courtois KV Oostende Aktiv 150 / 127 40% 6 18.12.2027 -
Luca Langoni Colorado Rapids Aktiv 124 / 134 40% 2 18.12.2027 -
Alfredo Morelos Atletico Nacional Aktiv 115 / 111 40% 5 17.12.2027 -
Ruben van Bommel Ferencvaros Aktiv 149 / 153 40% 3 16.12.2027 -
Santiago Sala Güemes Aktiv 97 / 104 40% 2 15.12.2027 -
Juan Rocca Gimnasia y Tiro Aktiv 115 / 115 40% 1 15.12.2027 -
Alejo Cruz Juventud Aktiv 112 / 107 40% 5 14.12.2027 -
Alejandro Piedrahita Tigres Aktiv 139 / 124 40% 1 14.12.2027 Mehr Infos nötig
Martín Ojeda Orlando City Aktiv 145 / 126 40% 3 11.12.2027 -
Matheus Nascimento FC Dallas Aktiv 126 / 130 40% 3 10.12.2027 -
Jáder Valencia Deportes Tolima Aktiv 127 / 127 40% 1 05.12.2027 -
Cheikh Sabaly Vancouver Whitecaps Aktiv 123 / 113 40% 2 04.12.2027 -
Gustavo Del Prete San Lorenzo Aktiv 115 / 104 40% 1 04.12.2027 -
Daniel Valencia America de Cali Aktiv 114 / 119 40% 1 02.12.2027 -
Bénie Traoré New York City Aktiv 118 / 135 40% 3 29.11.2027 -
Claudio Spinelli Vasco da Gama Aktiv 134 / 108 40% 1 29.11.2027 -
Jhoao Rodríguez Deportes Quindio Aktiv 128 / 105 40% 3 24.11.2027 -
Agustín Anello Philadelphia Union Aktiv 140 / 128 40% 1 24.11.2027 -
Luca Martínez Dupuy Godoy Cruz Aktiv 107 / 125 40% 2 23.11.2027 -
Timo Werner San Jose Earthquakes Aktiv 125 / 125 40% 2 20.11.2027 -
Augusto Berrondo Tristán Suárez Aktiv 127 / 97 40% 3 19.11.2027 -
Eric Ramírez Llaneros Aktiv 103 / 134 40% 1 19.11.2027 -
Dejan Joveljić Seattle Sounders Aktiv 125 / 122 40% 2 17.11.2027 -
Maximiliano Gómez Nacional Aktiv 136 / 128 40% 1 15.11.2027 -
Manuel Ospina Cortulua Aktiv 138 / 124 40% 2 13.11.2027 -
Alexis Cuello San Lorenzo Aktiv 133 / 144 40% 3 10.11.2027 -
Federico Martínez Liverpool Montevideo Aktiv 104 / 128 40% 2 06.11.2027 -
Wessam Abou Ali Columbus Crew Aktiv 122 / 120 40% 2 04.11.2027 -
Yota Komi Kashiwa Reysol Aktiv 124 / 129 40% 3 03.11.2027 -
Erison Kawasaki Frontale Aktiv 144 / 136 40% 1 22.10.2027 -
Jonathan Cañete Portuguesa Aktiv 129 / 96 40% 1 21.10.2027 -
Sead Hakšabanović Malmo FF Aktiv 129 / 106 40% 1 17.10.2027 -
Dean David Yokohama F. Marinos Aktiv 108 / 97 40% 1 16.10.2027 -
Kévin Denkey FC Cincinnati Aktiv 134 / 130 40% 1 15.10.2027 -
Lucas Carrizo Plaza Colonia Aktiv 102 / 134 40% 1 14.10.2027 -
Kelvin Flórez Atletico Bucaramanga Aktiv 111 / 137 40% 1 10.10.2027 -
Brandon Vázquez Austin FC Aktiv 120 / 130 40% 1 09.10.2027 -
Sebastián Cocimano Nueva Chicago Aktiv 129 / 121 40% 1 08.10.2027 -
Marcus Vinicius Deportivo Pereira Aktiv 106 / 108 40% 1 04.10.2027 -
Assane Diao Lazio Aktiv 153 / 150 40% 1 16.08.2027 -
Bryan Gil Girona Aktiv 156 / 138 40% 1 16.08.2027 -
Welington Southampton Aktiv 132 / 131 40% 1 09.08.2027 -
Ollie Tanner Cardiff City Aktiv 129 / 125 40% 1 02.08.2027 -
Jason Knight Bristol City Aktiv 132 / 132 40% 1 02.08.2027 -
Fuzy Taylor Medeama Aktiv 67 / 79 40% 1 26.07.2027 -
Darryl Bakola Padova Aktiv 104 / 111 40% 1 26.07.2027 -
Lucas Høgsberg RC Strasbourg Aktiv 143 / 130 40% 1 04.06.2027 -
Josh King Chelsea Aktiv 131 / 150 40% 1 04.06.2027 -
Jofre Torrents Ajax Aktiv 113 / 143 40% 1 03.06.2027 -
Davide Bartesaghi AC Milan Aktiv 142 / 123 40% 1 03.06.2027 -
Pedro de la Vega FC Dallas Aktiv 133 / 134 66% 1 01.06.2027 Befürworten
Nick Viergever Zwolle Aktiv 132 / 129 48% 1 01.06.2027 -
Carlos Vicente Birmingham Aktiv 151 / 130 40% 3 28.05.2027 -
Igor Nikić Mirandés Aktiv 124 / 132 40% 7 27.05.2027 -
Balázs Tóth Blackburn Rovers Aktiv 121 / 117 40% 2 27.05.2027 -
Guilherme Fernandes Córdoba Aktiv 132 / 135 40% 4 25.05.2027 -
Ionuţ Radu Celta Aktiv 132 / 143 40% 3 25.05.2027 -
Julen Agirrezabala Racing Santander Aktiv 154 / 155 40% 7 24.05.2027 -
Joel Pereira Reading Aktiv 106 / 116 40% 2 24.05.2027 -
Brent Gabriel Zulte Waregem Aktiv 121 / 113 40% 4 22.05.2027 -
Bailey Peacock-Farrell Blackpool Aktiv 119 / 101 40% 2 22.05.2027 -
Murphy Cooper Plymouth Argyle Aktiv 124 / 114 40% 4 21.05.2027 -
Max O'Leary West Bromwich Albion Aktiv 134 / 132 40% 3 20.05.2027 -
Andrés Martín Racing Santander Aktiv 143 / 129 40% 3 19.05.2027 -
Caoimhin Kelleher Brentford Aktiv 165 / 147 40% 3 19.05.2027 -
Leo Kokubo Sint-Truiden Aktiv 129 / 108 40% 3 18.05.2027 -
Mads Hermansen West Ham United Aktiv 131 / 138 40% 1 18.05.2027 -
Stanley Mills Oxford United Aktiv 125 / 120 40% 1 17.05.2027 -
Riley McGree Middlesbrough Aktiv 143 / 118 40% 1 17.05.2027 -
Antonio Sivera Alavés Aktiv 135 / 141 40% 4 14.05.2027 -
Gonzalo Crettaz NEC Aktiv 135 / 143 40% 2 13.05.2027 -
Mario Stroeykens Anderlecht Aktiv 122 / 130 40% 1 07.05.2027 -
Michael Cooper Sheffield United Aktiv 140 / 125 40% 7 03.05.2027 -
Zach Hemming Chesterfield Aktiv 106 / 99 40% 3 03.05.2027 -
Fabian de Keijzer Heracles Aktiv 107 / 126 40% 4 03.05.2027 -
Couhaib Driouech Celta Aktiv 136 / 131 40% 1 03.05.2027 -
Yehvann Diouf OGC Nice Aktiv 143 / 137 40% 4 30.04.2027 -
Thomas Didillon-Hödl Willem II Aktiv 121 / 111 40% 2 29.04.2027 -
Daniel Iversen Preston Aktiv 135 / 120 40% 1 29.04.2027 -
Javi Ontiveros Cádiz Aktiv 139 / 133 40% 1 29.04.2027 -
Ianis Hagi Alanyaspor Aktiv 137 / 110 40% 1 29.04.2027 -
Álvaro Valles Betis Aktiv 148 / 149 40% 3 27.04.2027 -
Pol Lozano Espanyol Aktiv 139 / 132 40% 2 27.04.2027 -
Alfie Whiteman Newport County Aktiv 109 / 95 40% 2 27.04.2027 -
Finn Azaz Southampton Aktiv 126 / 116 40% 1 27.04.2027 -
Robin Roefs Sunderland Aktiv 153 / 153 40% 2 23.04.2027 -
Arijanet Murić Sassuolo Aktiv 149 / 147 40% 4 20.04.2027 -
Radek Vítek Middlesbrough Aktiv 146 / 132 40% 4 20.04.2027 -
Abel Ruiz Girona Aktiv 148 / 135 40% 1 20.04.2027 -
Félix Lemaréchal Club Brugge Aktiv 149 / 150 40% 1 20.04.2027 -
Leander Lukaku KV Oostende Aktiv 129 / 134 40% 5 17.04.2027 -
Dean Henderson Crystal Palace Aktiv 140 / 149 40% 4 17.04.2027 -
Erick Reyes Toluca Aktiv 148 / 134 40% 8 16.04.2027 -
Jonmi Magunagoitia Eibar Aktiv 121 / 127 40% 5 15.04.2027 -
Corey Addai Stockport County Aktiv 103 / 115 40% 2 11.04.2027 -
Jeffrey de Lange Olympique de Marseille Aktiv 138 / 123 40% 1 11.04.2027 -
Beau Reus Waasland-Beveren Aktiv 139 / 139 40% 11 08.04.2027 -
Thomas De Bruyne Mouscron Aktiv 128 / 133 40% 5 05.04.2027 -
Tom Fellows Southampton Aktiv 121 / 139 40% 1 04.04.2027 -
Ozziel Herrera Tigres Aktiv 118 / 130 40% 1 02.04.2027 -
Luís Esteves Atlas Aktiv 126 / 119 40% 1 01.04.2027 -
Mduduzi Shabalala Kaizer Chiefs Aktiv 121 / 111 40% 1 01.04.2027 -
Etienne Vaessen Groningen Aktiv 108 / 133 40% 3 27.03.2027 -
Marko Ilić Westerlo Aktiv 119 / 128 40% 4 27.03.2027 -
Myron Boadu Twente Aktiv 115 / 123 40% 1 27.03.2027 -
Chris Lokesa Waasland-Beveren Aktiv 116 / 111 40% 1 27.03.2027 -
Ortwin De Wolf KV Mechelen Aktiv 111 / 126 40% 4 25.03.2027 -
Ilay Camara Anderlecht Aktiv 124 / 128 40% 2 24.03.2027 -
Carlos Marín Albacete Aktiv 130 / 133 40% 2 19.03.2027 -
Stijn van Gassel Excelsior Aktiv 118 / 134 40% 4 18.03.2027 -
Maxence Prévot OH Leuven Aktiv 105 / 122 40% 4 13.03.2027 -
Siebe Schrijvers OH Leuven Aktiv 125 / 127 40% 1 11.03.2027 -
Yoann Cathline Utrecht Aktiv 142 / 126 40% 1 10.03.2027 -
Bradley Mabunda SuperSport United Aktiv 99 / 119 40% 1 09.03.2027 -
Cezary Miszta Rio Ave Aktiv 123 / 136 40% 1 24.02.2027 -
Jordan Amissah Burton Albion Aktiv 111 / 100 40% 1 18.02.2027 -
Wladimiro Falcone Lecce Aktiv 128 / 128 40% 1 11.02.2027 -
Carlos Moreno Pachuca Aktiv 137 / 123 40% 1 09.02.2027 -
Hugo Souza Corinthians Aktiv 121 / 130 40% 1 28.01.2027 -
Augusto Batalla Rayo Vallecano Aktiv 146 / 149 40% 2 26.01.2027 -
Christian Walton Ipswich Town Aktiv 125 / 131 40% 1 26.01.2027 -
Justin Treichel Roda Aktiv 119 / 116 40% 1 21.01.2027 -
Nikolas Sattlberger Racing Genk Aktiv 114 / 120 40% 1 12.01.2027 -
Omar El Hilali Espanyol Aktiv 140 / 150 40% 1 12.01.2027 -
Lukas Jensen Millwall Aktiv 115 / 107 40% 1 06.01.2027 -
George Wickens Lincoln City Aktiv 105 / 117 40% 2 05.01.2027 -
Erick Sánchez OGC Nice Verhandlung 139 / 139 66% 1 01.01.2027 Befürworten
Oli McBurnie Hull City Aktiv 128 / 125 40% 4 30.12.2026 -
Jhojan Julio Queretaro Aktiv 110 / 126 40% 1 30.12.2026 -
Ryotaro Araki Sint-Truiden Aktiv 118 / 115 40% 1 29.12.2026 -
Nacer Tielemans Mouscron Aktiv 144 / 125 40% 3 27.12.2026 -
Hugo Duro Valencia Aktiv 142 / 142 40% 1 27.12.2026 Mehr Infos nötig
Nicolò Tresoldi Club Brugge Aktiv 123 / 126 40% 4 19.12.2026 -
Yousef Salech Cardiff City Aktiv 129 / 117 40% 2 15.12.2026 -
Rafiu Durosinmi Racing Genk Aktiv 119 / 130 40% 1 09.12.2026 -
Themba Ngcobo SuperSport United Aktiv 104 / 102 40% 1 07.12.2026 -
Mexx Meerdink AZ Aktiv 147 / 129 40% 2 05.12.2026 -
Romelu Castagne KV Oostende Aktiv 129 / 145 40% 4 03.12.2026 -
Gabriel Jesus Barcelona Aktiv 161 / 161 40% 3 28.11.2026 -
Giacomo Raspadori Atalanta Aktiv 135 / 155 40% 1 16.11.2026 -
Benito Raman KV Mechelen Aktiv 109 / 121 40% 3 14.11.2026 -
Jakob Napoleon Romsaas Charleroi Aktiv 122 / 118 40% 1 14.11.2026 -
Haris Tabaković Red Bull Salzburg Aktiv 151 / 142 40% 1 11.11.2026 -
Thiago Brentford Aktiv 154 / 159 40% 1 11.11.2026 -
Luis Vázquez Birmingham Aktiv 116 / 123 40% 1 09.11.2026 -
Lucas Di Yorio Santos Laguna Aktiv 121 / 118 40% 1 07.11.2026 -
Georginio Rutter Brighton Aktiv 160 / 137 40% 1 29.10.2026 -
Freddy Gomez La Equidad Aktiv 129 / 129 40% 1 23.10.2026 -
Dango Ouattara Brentford Aktiv 137 / 151 40% 1 23.10.2026 -
Agustín Módica Gimnasia y Esgrima Aktiv 103 / 101 40% 1 20.10.2026 -
Danylo Sikan Anderlecht Aktiv 115 / 119 40% 1 19.10.2026 -
Hugo Cuypers Monterrey Aktiv 131 / 136 40% 1 19.10.2026 -
Maksim Kireev KV Mechelen Aktiv 112 / 119 40% 1 31.08.2026 -
Oualid Agougil Utrecht Aktiv 109 / 104 44% 1 24.08.2026 -
Matisse Samoise KAA Gent Aktiv 118 / 122 40% 1 17.08.2026 -
Taiga Hata Sint-Truiden Aktiv 129 / 128 40% 1 10.08.2026 -
Roméo Amané Anderlecht Aktiv 109 / 134 40% 1 10.08.2026 -
Igor Burnley Aktiv 144 / 124 40% 1 01.08.2026 -